sensor_id;sensor_type;location;lat;lon;timestamp;P1;durP1;ratioP1;P2;durP2;ratioP2
71164;SDS011;58859;55.132;-1.586;2022-12-18T00:03:47;20.77;;;11.23;;
71164;SDS011;58859;55.132;-1.586;2022-12-18T00:06:12;21.70;;;12.17;;
71164;SDS011;58859;55.132;-1.586;2022-12-18T00:08:38;20.45;;;11.65;;
71164;SDS011;58859;55.132;-1.586;2022-12-18T00:11:05;18.65;;;11.75;;
71164;SDS011;58859;55.132;-1.586;2022-12-18T00:13:31;18.83;;;10.50;;
71164;SDS011;58859;55.132;-1.586;2022-12-18T00:16:00;19.77;;;10.97;;
71164;SDS011;58859;55.132;-1.586;2022-12-18T00:18:30;16.80;;;10.00;;
71164;SDS011;58859;55.132;-1.586;2022-12-18T00:20:58;15.60;;;9.37;;
71164;SDS011;58859;55.132;-1.586;2022-12-18T00:23:24;15.32;;;10.00;;
71164;SDS011;58859;55.132;-1.586;2022-12-18T00:25:50;18.07;;;10.10;;
71164;SDS011;58859;55.132;-1.586;2022-12-18T00:28:15;17.60;;;10.07;;
71164;SDS011;58859;55.132;-1.586;2022-12-18T00:30:40;14.43;;;9.13;;
71164;SDS011;58859;55.132;-1.586;2022-12-18T00:33:06;16.90;;;9.40;;
71164;SDS011;58859;55.132;-1.586;2022-12-18T00:35:31;14.93;;;9.60;;
71164;SDS011;58859;55.132;-1.586;2022-12-18T00:37:57;16.38;;;9.88;;
71164;SDS011;58859;55.132;-1.586;2022-12-18T00:40:22;16.67;;;10.27;;
71164;SDS011;58859;55.132;-1.586;2022-12-18T00:42:47;17.80;;;10.67;;
71164;SDS011;58859;55.132;-1.586;2022-12-18T00:45:25;20.23;;;10.80;;
71164;SDS011;58859;55.132;-1.586;2022-12-18T00:47:52;20.00;;;10.20;;
71164;SDS011;58859;55.132;-1.586;2022-12-18T00:50:17;15.90;;;9.80;;
71164;SDS011;58859;55.132;-1.586;2022-12-18T00:52:43;14.77;;;7.87;;
71164;SDS011;58859;55.132;-1.586;2022-12-18T00:55:09;12.98;;;7.97;;
71164;SDS011;58859;55.132;-1.586;2022-12-18T00:57:35;12.67;;;7.63;;
71164;SDS011;58859;55.132;-1.586;2022-12-18T01:00:00;13.35;;;7.90;;
71164;SDS011;58859;55.132;-1.586;2022-12-18T01:02:26;14.07;;;7.90;;
71164;SDS011;58859;55.132;-1.586;2022-12-18T01:04:51;14.10;;;8.83;;
71164;SDS011;58859;55.132;-1.586;2022-12-18T01:07:17;13.38;;;9.20;;
71164;SDS011;58859;55.132;-1.586;2022-12-18T01:09:42;14.38;;;9.00;;
71164;SDS011;58859;55.132;-1.586;2022-12-18T01:12:07;12.53;;;8.47;;
71164;SDS011;58859;55.132;-1.586;2022-12-18T01:14:33;14.83;;;8.27;;
71164;SDS011;58859;55.132;-1.586;2022-12-18T01:16:58;15.50;;;9.43;;
71164;SDS011;58859;55.132;-1.586;2022-12-18T01:19:24;17.90;;;10.70;;
71164;SDS011;58859;55.132;-1.586;2022-12-18T01:21:49;23.10;;;12.20;;
71164;SDS011;58859;55.132;-1.586;2022-12-18T01:24:15;20.40;;;13.10;;
71164;SDS011;58859;55.132;-1.586;2022-12-18T01:26:40;20.70;;;12.17;;
71164;SDS011;58859;55.132;-1.586;2022-12-18T01:29:06;16.80;;;9.43;;
71164;SDS011;58859;55.132;-1.586;2022-12-18T01:31:32;15.20;;;9.07;;
71164;SDS011;58859;55.132;-1.586;2022-12-18T01:34:00;14.77;;;8.85;;
71164;SDS011;58859;55.132;-1.586;2022-12-18T01:36:27;13.37;;;8.33;;
71164;SDS011;58859;55.132;-1.586;2022-12-18T01:38:54;15.45;;;8.90;;
71164;SDS011;58859;55.132;-1.586;2022-12-18T01:41:22;14.80;;;8.52;;
71164;SDS011;58859;55.132;-1.586;2022-12-18T01:46:14;17.07;;;9.10;;
71164;SDS011;58859;55.132;-1.586;2022-12-18T01:48:41;15.07;;;8.93;;
71164;SDS011;58859;55.132;-1.586;2022-12-18T01:51:07;16.55;;;8.32;;
71164;SDS011;58859;55.132;-1.586;2022-12-18T01:53:34;14.53;;;8.10;;
71164;SDS011;58859;55.132;-1.586;2022-12-18T01:56:01;15.10;;;9.00;;
71164;SDS011;58859;55.132;-1.586;2022-12-18T02:01:29;11.15;;;7.53;;
71164;SDS011;58859;55.132;-1.586;2022-12-18T02:03:55;13.98;;;7.90;;
71164;SDS011;58859;55.132;-1.586;2022-12-18T02:09:01;13.18;;;8.18;;
71164;SDS011;58859;55.132;-1.586;2022-12-18T02:14:17;12.48;;;7.00;;
71164;SDS011;58859;55.132;-1.586;2022-12-18T02:24:44;12.85;;;7.47;;
71164;SDS011;58859;55.132;-1.586;2022-12-18T02:27:32;10.68;;;6.70;;
71164;SDS011;58859;55.132;-1.586;2022-12-18T02:29:59;10.60;;;6.82;;
71164;SDS011;58859;55.132;-1.586;2022-12-18T02:32:29;11.83;;;6.63;;
71164;SDS011;58859;55.132;-1.586;2022-12-18T02:34:57;10.00;;;5.93;;
71164;SDS011;58859;55.132;-1.586;2022-12-18T02:37:23;8.43;;;6.15;;
71164;SDS011;58859;55.132;-1.586;2022-12-18T02:39:51;8.35;;;5.38;;
71164;SDS011;58859;55.132;-1.586;2022-12-18T02:42:18;9.30;;;5.82;;
71164;SDS011;58859;55.132;-1.586;2022-12-18T02:44:48;8.00;;;5.83;;
71164;SDS011;58859;55.132;-1.586;2022-12-18T02:47:15;9.07;;;6.00;;
71164;SDS011;58859;55.132;-1.586;2022-12-18T02:57:52;9.50;;;6.10;;
71164;SDS011;58859;55.132;-1.586;2022-12-18T03:00:40;9.52;;;5.57;;
71164;SDS011;58859;55.132;-1.586;2022-12-18T03:03:15;8.82;;;6.00;;
71164;SDS011;58859;55.132;-1.586;2022-12-18T03:08:33;10.20;;;5.50;;
71164;SDS011;58859;55.132;-1.586;2022-12-18T03:11:03;9.40;;;6.22;;
71164;SDS011;58859;55.132;-1.586;2022-12-18T03:13:35;12.73;;;6.63;;
71164;SDS011;58859;55.132;-1.586;2022-12-18T03:16:10;10.57;;;6.03;;
71164;SDS011;58859;55.132;-1.586;2022-12-18T03:21:10;11.10;;;6.38;;
71164;SDS011;58859;55.132;-1.586;2022-12-18T03:23:42;10.15;;;6.85;;
71164;SDS011;58859;55.132;-1.586;2022-12-18T03:26:10;10.30;;;6.68;;
71164;SDS011;58859;55.132;-1.586;2022-12-18T03:28:41;8.10;;;5.65;;
71164;SDS011;58859;55.132;-1.586;2022-12-18T03:31:09;8.43;;;5.23;;
71164;SDS011;58859;55.132;-1.586;2022-12-18T03:33:46;9.13;;;5.93;;
71164;SDS011;58859;55.132;-1.586;2022-12-18T03:36:16;9.40;;;6.63;;
71164;SDS011;58859;55.132;-1.586;2022-12-18T03:38:42;10.27;;;7.30;;
71164;SDS011;58859;55.132;-1.586;2022-12-18T03:41:11;10.25;;;7.35;;
71164;SDS011;58859;55.132;-1.586;2022-12-18T03:46:15;10.43;;;7.05;;
71164;SDS011;58859;55.132;-1.586;2022-12-18T03:48:51;13.07;;;7.75;;
71164;SDS011;58859;55.132;-1.586;2022-12-18T03:51:34;11.02;;;7.35;;
71164;SDS011;58859;55.132;-1.586;2022-12-18T03:54:25;13.85;;;8.25;;
71164;SDS011;58859;55.132;-1.586;2022-12-18T03:56:55;12.40;;;8.33;;
71164;SDS011;58859;55.132;-1.586;2022-12-18T03:59:23;13.63;;;8.65;;
71164;SDS011;58859;55.132;-1.586;2022-12-18T04:01:50;15.60;;;9.10;;
71164;SDS011;58859;55.132;-1.586;2022-12-18T04:04:17;12.88;;;7.85;;
71164;SDS011;58859;55.132;-1.586;2022-12-18T04:06:44;12.18;;;8.85;;
71164;SDS011;58859;55.132;-1.586;2022-12-18T04:09:10;13.40;;;8.37;;
71164;SDS011;58859;55.132;-1.586;2022-12-18T04:11:36;12.18;;;7.25;;
71164;SDS011;58859;55.132;-1.586;2022-12-18T04:14:01;12.77;;;8.07;;
71164;SDS011;58859;55.132;-1.586;2022-12-18T04:16:27;10.27;;;7.40;;
71164;SDS011;58859;55.132;-1.586;2022-12-18T04:18:52;12.27;;;7.30;;
71164;SDS011;58859;55.132;-1.586;2022-12-18T04:21:18;12.40;;;7.68;;
71164;SDS011;58859;55.132;-1.586;2022-12-18T04:23:44;13.93;;;9.10;;
71164;SDS011;58859;55.132;-1.586;2022-12-18T04:26:09;13.83;;;8.70;;
71164;SDS011;58859;55.132;-1.586;2022-12-18T04:28:35;11.93;;;7.37;;
71164;SDS011;58859;55.132;-1.586;2022-12-18T04:31:02;11.52;;;8.13;;
71164;SDS011;58859;55.132;-1.586;2022-12-18T04:33:27;12.60;;;8.67;;
71164;SDS011;58859;55.132;-1.586;2022-12-18T04:35:53;12.55;;;8.30;;
71164;SDS011;58859;55.132;-1.586;2022-12-18T04:38:18;14.13;;;9.30;;
71164;SDS011;58859;55.132;-1.586;2022-12-18T04:40:43;17.40;;;10.30;;
71164;SDS011;58859;55.132;-1.586;2022-12-18T04:43:09;16.40;;;10.57;;
71164;SDS011;58859;55.132;-1.586;2022-12-18T04:45:34;18.27;;;10.73;;
71164;SDS011;58859;55.132;-1.586;2022-12-18T04:48:00;19.03;;;10.67;;
71164;SDS011;58859;55.132;-1.586;2022-12-18T04:50:26;16.80;;;10.77;;
71164;SDS011;58859;55.132;-1.586;2022-12-18T04:52:52;17.60;;;10.73;;
71164;SDS011;58859;55.132;-1.586;2022-12-18T04:55:18;16.17;;;10.87;;
71164;SDS011;58859;55.132;-1.586;2022-12-18T04:57:43;17.65;;;10.70;;
71164;SDS011;58859;55.132;-1.586;2022-12-18T05:00:09;16.27;;;10.37;;
71164;SDS011;58859;55.132;-1.586;2022-12-18T05:02:34;16.85;;;10.88;;
71164;SDS011;58859;55.132;-1.586;2022-12-18T05:05:00;16.27;;;11.37;;
71164;SDS011;58859;55.132;-1.586;2022-12-18T05:07:25;17.10;;;11.33;;
71164;SDS011;58859;55.132;-1.586;2022-12-18T05:09:51;18.53;;;11.53;;
71164;SDS011;58859;55.132;-1.586;2022-12-18T05:12:16;15.93;;;10.60;;
71164;SDS011;58859;55.132;-1.586;2022-12-18T05:14:41;15.77;;;10.47;;
71164;SDS011;58859;55.132;-1.586;2022-12-18T05:17:07;17.92;;;11.05;;
71164;SDS011;58859;55.132;-1.586;2022-12-18T05:19:32;17.47;;;11.20;;
71164;SDS011;58859;55.132;-1.586;2022-12-18T05:21:57;16.13;;;10.70;;
71164;SDS011;58859;55.132;-1.586;2022-12-18T05:24:23;17.77;;;10.57;;
71164;SDS011;58859;55.132;-1.586;2022-12-18T05:26:48;18.40;;;10.77;;
71164;SDS011;58859;55.132;-1.586;2022-12-18T05:29:14;19.10;;;11.27;;
71164;SDS011;58859;55.132;-1.586;2022-12-18T05:31:39;15.73;;;10.80;;
71164;SDS011;58859;55.132;-1.586;2022-12-18T05:34:05;17.00;;;9.47;;
71164;SDS011;58859;55.132;-1.586;2022-12-18T05:36:31;16.33;;;10.10;;
71164;SDS011;58859;55.132;-1.586;2022-12-18T05:38:56;17.30;;;11.30;;
71164;SDS011;58859;55.132;-1.586;2022-12-18T05:41:21;18.03;;;12.83;;
71164;SDS011;58859;55.132;-1.586;2022-12-18T05:43:47;20.07;;;12.87;;
71164;SDS011;58859;55.132;-1.586;2022-12-18T05:46:14;23.00;;;14.37;;
71164;SDS011;58859;55.132;-1.586;2022-12-18T05:48:41;18.50;;;12.32;;
71164;SDS011;58859;55.132;-1.586;2022-12-18T05:51:08;18.45;;;11.73;;
71164;SDS011;58859;55.132;-1.586;2022-12-18T05:53:35;19.63;;;11.75;;
71164;SDS011;58859;55.132;-1.586;2022-12-18T05:56:02;21.10;;;13.30;;
71164;SDS011;58859;55.132;-1.586;2022-12-18T05:58:29;24.87;;;13.53;;
71164;SDS011;58859;55.132;-1.586;2022-12-18T06:00:55;26.85;;;14.30;;
71164;SDS011;58859;55.132;-1.586;2022-12-18T06:03:21;21.75;;;12.93;;
71164;SDS011;58859;55.132;-1.586;2022-12-18T06:05:46;19.37;;;12.47;;
71164;SDS011;58859;55.132;-1.586;2022-12-18T06:08:12;28.70;;;14.43;;
71164;SDS011;58859;55.132;-1.586;2022-12-18T06:10:38;20.42;;;12.07;;
71164;SDS011;58859;55.132;-1.586;2022-12-18T06:13:04;21.73;;;13.20;;
71164;SDS011;58859;55.132;-1.586;2022-12-18T06:15:30;25.10;;;12.57;;
71164;SDS011;58859;55.132;-1.586;2022-12-18T06:17:56;25.40;;;13.47;;
71164;SDS011;58859;55.132;-1.586;2022-12-18T06:20:21;19.45;;;13.07;;
71164;SDS011;58859;55.132;-1.586;2022-12-18T06:22:47;22.17;;;13.93;;
71164;SDS011;58859;55.132;-1.586;2022-12-18T06:25:12;19.80;;;13.00;;
71164;SDS011;58859;55.132;-1.586;2022-12-18T06:27:37;21.37;;;12.13;;
71164;SDS011;58859;55.132;-1.586;2022-12-18T06:30:03;24.20;;;12.93;;
71164;SDS011;58859;55.132;-1.586;2022-12-18T06:32:29;20.02;;;11.43;;
71164;SDS011;58859;55.132;-1.586;2022-12-18T06:34:54;22.97;;;12.83;;
71164;SDS011;58859;55.132;-1.586;2022-12-18T06:37:20;21.00;;;12.07;;
71164;SDS011;58859;55.132;-1.586;2022-12-18T06:39:46;20.33;;;12.13;;
71164;SDS011;58859;55.132;-1.586;2022-12-18T06:42:11;20.90;;;12.43;;
71164;SDS011;58859;55.132;-1.586;2022-12-18T06:44:37;20.13;;;11.47;;
71164;SDS011;58859;55.132;-1.586;2022-12-18T06:47:02;19.30;;;11.53;;
71164;SDS011;58859;55.132;-1.586;2022-12-18T06:49:28;18.90;;;11.20;;
71164;SDS011;58859;55.132;-1.586;2022-12-18T06:51:53;17.45;;;11.52;;
71164;SDS011;58859;55.132;-1.586;2022-12-18T06:54:18;20.73;;;11.90;;
71164;SDS011;58859;55.132;-1.586;2022-12-18T06:56:47;18.70;;;11.17;;
71164;SDS011;58859;55.132;-1.586;2022-12-18T06:59:13;21.20;;;11.30;;
71164;SDS011;58859;55.132;-1.586;2022-12-18T07:01:39;19.53;;;11.67;;
71164;SDS011;58859;55.132;-1.586;2022-12-18T07:04:04;21.13;;;12.20;;
71164;SDS011;58859;55.132;-1.586;2022-12-18T07:06:30;22.23;;;11.43;;
71164;SDS011;58859;55.132;-1.586;2022-12-18T07:08:55;15.87;;;11.83;;
71164;SDS011;58859;55.132;-1.586;2022-12-18T07:11:21;22.10;;;12.10;;
71164;SDS011;58859;55.132;-1.586;2022-12-18T07:13:46;16.48;;;11.38;;
71164;SDS011;58859;55.132;-1.586;2022-12-18T07:16:16;15.87;;;9.53;;
71164;SDS011;58859;55.132;-1.586;2022-12-18T07:18:42;19.35;;;10.80;;
71164;SDS011;58859;55.132;-1.586;2022-12-18T07:21:09;16.58;;;10.27;;
71164;SDS011;58859;55.132;-1.586;2022-12-18T07:23:36;15.38;;;9.60;;
71164;SDS011;58859;55.132;-1.586;2022-12-18T07:26:05;23.67;;;11.73;;
71164;SDS011;58859;55.132;-1.586;2022-12-18T07:28:33;17.30;;;9.63;;
71164;SDS011;58859;55.132;-1.586;2022-12-18T07:31:02;15.05;;;9.30;;
71164;SDS011;58859;55.132;-1.586;2022-12-18T07:33:31;16.30;;;9.97;;
71164;SDS011;58859;55.132;-1.586;2022-12-18T07:35:59;16.52;;;9.93;;
71164;SDS011;58859;55.132;-1.586;2022-12-18T07:38:24;15.10;;;9.60;;
71164;SDS011;58859;55.132;-1.586;2022-12-18T07:40:50;18.73;;;11.60;;
71164;SDS011;58859;55.132;-1.586;2022-12-18T07:43:15;19.17;;;10.40;;
71164;SDS011;58859;55.132;-1.586;2022-12-18T07:45:41;10.93;;;6.87;;
71164;SDS011;58859;55.132;-1.586;2022-12-18T07:48:07;21.08;;;11.68;;
71164;SDS011;58859;55.132;-1.586;2022-12-18T07:50:32;11.53;;;8.23;;
71164;SDS011;58859;55.132;-1.586;2022-12-18T07:52:58;16.63;;;10.45;;
71164;SDS011;58859;55.132;-1.586;2022-12-18T07:55:23;21.02;;;11.05;;
71164;SDS011;58859;55.132;-1.586;2022-12-18T07:57:48;13.47;;;8.77;;
71164;SDS011;58859;55.132;-1.586;2022-12-18T08:00:14;15.07;;;10.37;;
71164;SDS011;58859;55.132;-1.586;2022-12-18T08:02:39;18.37;;;10.93;;
71164;SDS011;58859;55.132;-1.586;2022-12-18T08:05:05;18.27;;;11.10;;
71164;SDS011;58859;55.132;-1.586;2022-12-18T08:07:30;16.45;;;11.10;;
71164;SDS011;58859;55.132;-1.586;2022-12-18T08:09:56;15.07;;;10.27;;
71164;SDS011;58859;55.132;-1.586;2022-12-18T08:12:21;20.90;;;13.20;;
71164;SDS011;58859;55.132;-1.586;2022-12-18T08:14:46;12.13;;;7.23;;
71164;SDS011;58859;55.132;-1.586;2022-12-18T08:17:12;18.27;;;11.33;;
71164;SDS011;58859;55.132;-1.586;2022-12-18T08:19:37;18.70;;;11.97;;
71164;SDS011;58859;55.132;-1.586;2022-12-18T08:22:03;21.38;;;10.57;;
71164;SDS011;58859;55.132;-1.586;2022-12-18T08:24:28;20.63;;;11.33;;
71164;SDS011;58859;55.132;-1.586;2022-12-18T08:26:53;19.83;;;11.63;;
71164;SDS011;58859;55.132;-1.586;2022-12-18T08:29:19;19.80;;;12.07;;
71164;SDS011;58859;55.132;-1.586;2022-12-18T08:31:44;21.33;;;11.15;;
71164;SDS011;58859;55.132;-1.586;2022-12-18T08:34:10;21.00;;;12.77;;
71164;SDS011;58859;55.132;-1.586;2022-12-18T08:36:35;16.43;;;9.83;;
71164;SDS011;58859;55.132;-1.586;2022-12-18T08:39:01;21.27;;;11.17;;
71164;SDS011;58859;55.132;-1.586;2022-12-18T08:41:26;21.03;;;12.27;;
71164;SDS011;58859;55.132;-1.586;2022-12-18T08:43:51;22.33;;;11.77;;
71164;SDS011;58859;55.132;-1.586;2022-12-18T08:46:36;21.17;;;11.07;;
71164;SDS011;58859;55.132;-1.586;2022-12-18T08:49:03;13.80;;;8.00;;
71164;SDS011;58859;55.132;-1.586;2022-12-18T08:51:29;20.08;;;12.38;;
71164;SDS011;58859;55.132;-1.586;2022-12-18T08:53:54;19.43;;;11.90;;
71164;SDS011;58859;55.132;-1.586;2022-12-18T08:56:20;23.87;;;12.80;;
71164;SDS011;58859;55.132;-1.586;2022-12-18T08:58:45;23.57;;;12.70;;
71164;SDS011;58859;55.132;-1.586;2022-12-18T09:01:12;19.45;;;11.90;;
71164;SDS011;58859;55.132;-1.586;2022-12-18T09:03:38;22.00;;;12.55;;
71164;SDS011;58859;55.132;-1.586;2022-12-18T09:06:04;17.65;;;11.13;;
71164;SDS011;58859;55.132;-1.586;2022-12-18T09:08:30;18.80;;;9.43;;
71164;SDS011;58859;55.132;-1.586;2022-12-18T09:10:55;22.65;;;12.63;;
71164;SDS011;58859;55.132;-1.586;2022-12-18T09:13:20;19.17;;;11.30;;
71164;SDS011;58859;55.132;-1.586;2022-12-18T09:15:47;27.30;;;14.30;;
71164;SDS011;58859;55.132;-1.586;2022-12-18T09:18:15;18.42;;;10.52;;
71164;SDS011;58859;55.132;-1.586;2022-12-18T09:20:41;23.55;;;13.18;;
71164;SDS011;58859;55.132;-1.586;2022-12-18T09:23:06;25.17;;;13.57;;
71164;SDS011;58859;55.132;-1.586;2022-12-18T09:25:32;19.98;;;10.48;;
71164;SDS011;58859;55.132;-1.586;2022-12-18T09:28:00;29.67;;;15.63;;
71164;SDS011;58859;55.132;-1.586;2022-12-18T09:30:30;25.03;;;13.37;;
71164;SDS011;58859;55.132;-1.586;2022-12-18T09:32:58;16.58;;;8.00;;
71164;SDS011;58859;55.132;-1.586;2022-12-18T09:35:24;20.15;;;10.52;;
71164;SDS011;58859;55.132;-1.586;2022-12-18T09:37:49;24.17;;;12.40;;
71164;SDS011;58859;55.132;-1.586;2022-12-18T09:40:16;28.43;;;13.77;;
71164;SDS011;58859;55.132;-1.586;2022-12-18T09:42:44;26.00;;;14.85;;
71164;SDS011;58859;55.132;-1.586;2022-12-18T09:45:12;22.30;;;11.32;;
71164;SDS011;58859;55.132;-1.586;2022-12-18T09:47:39;31.40;;;14.63;;
71164;SDS011;58859;55.132;-1.586;2022-12-18T09:50:12;28.85;;;13.70;;
71164;SDS011;58859;55.132;-1.586;2022-12-18T09:52:59;27.37;;;13.73;;
71164;SDS011;58859;55.132;-1.586;2022-12-18T09:55:31;31.27;;;14.18;;
71164;SDS011;58859;55.132;-1.586;2022-12-18T09:58:00;20.55;;;11.30;;
71164;SDS011;58859;55.132;-1.586;2022-12-18T10:00:30;28.20;;;14.20;;
71164;SDS011;58859;55.132;-1.586;2022-12-18T10:02:58;26.73;;;12.90;;
71164;SDS011;58859;55.132;-1.586;2022-12-18T10:05:34;27.95;;;14.38;;
71164;SDS011;58859;55.132;-1.586;2022-12-18T10:08:09;27.52;;;12.80;;
71164;SDS011;58859;55.132;-1.586;2022-12-18T10:10:51;18.23;;;10.18;;
71164;SDS011;58859;55.132;-1.586;2022-12-18T10:13:23;34.28;;;16.70;;
71164;SDS011;58859;55.132;-1.586;2022-12-18T10:21:13;27.25;;;12.55;;
71164;SDS011;58859;55.132;-1.586;2022-12-18T10:24:26;35.20;;;15.23;;
71164;SDS011;58859;55.132;-1.586;2022-12-18T10:26:31;32.22;;;13.82;;
71164;SDS011;58859;55.132;-1.586;2022-12-18T10:28:56;25.00;;;12.73;;
71164;SDS011;58859;55.132;-1.586;2022-12-18T10:31:22;35.58;;;15.27;;
71164;SDS011;58859;55.132;-1.586;2022-12-18T10:33:48;26.20;;;13.48;;
71164;SDS011;58859;55.132;-1.586;2022-12-18T10:36:14;31.80;;;12.10;;
71164;SDS011;58859;55.132;-1.586;2022-12-18T10:38:40;37.73;;;15.07;;
71164;SDS011;58859;55.132;-1.586;2022-12-18T10:43:44;36.28;;;15.82;;
71164;SDS011;58859;55.132;-1.586;2022-12-18T10:51:46;37.22;;;15.55;;
71164;SDS011;58859;55.132;-1.586;2022-12-18T10:54:05;29.65;;;14.70;;
71164;SDS011;58859;55.132;-1.586;2022-12-18T10:56:32;26.77;;;14.02;;
71164;SDS011;58859;55.132;-1.586;2022-12-18T10:59:06;33.38;;;14.77;;
71164;SDS011;58859;55.132;-1.586;2022-12-18T11:04:24;31.58;;;14.18;;
71164;SDS011;58859;55.132;-1.586;2022-12-18T11:07:01;20.88;;;10.85;;
71164;SDS011;58859;55.132;-1.586;2022-12-18T11:11:57;28.20;;;13.15;;
71164;SDS011;58859;55.132;-1.586;2022-12-18T11:14:31;34.73;;;15.07;;
71164;SDS011;58859;55.132;-1.586;2022-12-18T11:16:59;31.23;;;15.02;;
71164;SDS011;58859;55.132;-1.586;2022-12-18T11:21:50;33.10;;;15.30;;
71164;SDS011;58859;55.132;-1.586;2022-12-18T11:24:32;33.22;;;14.48;;
71164;SDS011;58859;55.132;-1.586;2022-12-18T11:27:03;29.17;;;13.52;;
71164;SDS011;58859;55.132;-1.586;2022-12-18T11:29:39;35.05;;;14.48;;
71164;SDS011;58859;55.132;-1.586;2022-12-18T11:34:39;29.98;;;13.50;;
71164;SDS011;58859;55.132;-1.586;2022-12-18T11:37:07;29.83;;;14.13;;
71164;SDS011;58859;55.132;-1.586;2022-12-18T11:39:39;36.20;;;14.95;;
71164;SDS011;58859;55.132;-1.586;2022-12-18T11:44:38;33.55;;;13.80;;
71164;SDS011;58859;55.132;-1.586;2022-12-18T11:47:56;33.30;;;14.57;;
71164;SDS011;58859;55.132;-1.586;2022-12-18T11:50:05;29.37;;;13.73;;
71164;SDS011;58859;55.132;-1.586;2022-12-18T11:52:42;32.53;;;14.60;;
71164;SDS011;58859;55.132;-1.586;2022-12-18T11:55:15;28.80;;;13.90;;
71164;SDS011;58859;55.132;-1.586;2022-12-18T12:00:27;30.52;;;12.95;;
71164;SDS011;58859;55.132;-1.586;2022-12-18T12:03:06;23.50;;;11.70;;
71164;SDS011;58859;55.132;-1.586;2022-12-18T12:08:30;28.92;;;13.00;;
71164;SDS011;58859;55.132;-1.586;2022-12-18T12:14:23;24.42;;;10.38;;
71164;SDS011;58859;55.132;-1.586;2022-12-18T12:19:56;32.53;;;12.65;;
71164;SDS011;58859;55.132;-1.586;2022-12-18T12:22:36;21.67;;;10.30;;
71164;SDS011;58859;55.132;-1.586;2022-12-18T12:30:58;22.87;;;9.93;;
71164;SDS011;58859;55.132;-1.586;2022-12-18T12:39:38;20.95;;;9.32;;
71164;SDS011;58859;55.132;-1.586;2022-12-18T12:42:08;29.20;;;12.50;;
71164;SDS011;58859;55.132;-1.586;2022-12-18T12:44:58;23.27;;;9.67;;
71164;SDS011;58859;55.132;-1.586;2022-12-18T12:47:33;29.60;;;13.70;;
71164;SDS011;58859;55.132;-1.586;2022-12-18T12:50:03;26.63;;;12.10;;
71164;SDS011;58859;55.132;-1.586;2022-12-18T12:52:35;23.77;;;10.35;;
71164;SDS011;58859;55.132;-1.586;2022-12-18T12:55:04;22.73;;;10.15;;
71164;SDS011;58859;55.132;-1.586;2022-12-18T12:57:45;22.30;;;9.37;;
71164;SDS011;58859;55.132;-1.586;2022-12-18T13:00:17;16.75;;;7.57;;
71164;SDS011;58859;55.132;-1.586;2022-12-18T13:02:47;19.30;;;8.98;;
71164;SDS011;58859;55.132;-1.586;2022-12-18T13:08:08;24.98;;;10.43;;
71164;SDS011;58859;55.132;-1.586;2022-12-18T13:13:05;17.08;;;6.88;;
71164;SDS011;58859;55.132;-1.586;2022-12-18T13:18:05;23.00;;;10.18;;
71164;SDS011;58859;55.132;-1.586;2022-12-18T13:25:48;16.00;;;8.65;;
71164;SDS011;58859;55.132;-1.586;2022-12-18T13:30:48;18.80;;;9.30;;
71164;SDS011;58859;55.132;-1.586;2022-12-18T13:41:04;13.63;;;7.20;;
71164;SDS011;58859;55.132;-1.586;2022-12-18T13:43:39;24.02;;;10.63;;
71164;SDS011;58859;55.132;-1.586;2022-12-18T13:46:21;20.63;;;8.60;;
71164;SDS011;58859;55.132;-1.586;2022-12-18T13:51:23;17.50;;;8.48;;
71164;SDS011;58859;55.132;-1.586;2022-12-18T13:54:02;19.05;;;8.63;;
71164;SDS011;58859;55.132;-1.586;2022-12-18T13:56:42;18.38;;;8.50;;
71164;SDS011;58859;55.132;-1.586;2022-12-18T13:59:20;23.02;;;9.43;;
71164;SDS011;58859;55.132;-1.586;2022-12-18T14:04:37;10.88;;;5.50;;
71164;SDS011;58859;55.132;-1.586;2022-12-18T14:09:30;17.95;;;9.23;;
71164;SDS011;58859;55.132;-1.586;2022-12-18T14:11:56;17.83;;;9.05;;
71164;SDS011;58859;55.132;-1.586;2022-12-18T14:14:47;20.80;;;8.73;;
71164;SDS011;58859;55.132;-1.586;2022-12-18T14:17:14;16.23;;;9.00;;
71164;SDS011;58859;55.132;-1.586;2022-12-18T14:19:43;17.70;;;9.30;;
71164;SDS011;58859;55.132;-1.586;2022-12-18T14:22:20;21.42;;;9.93;;
71164;SDS011;58859;55.132;-1.586;2022-12-18T14:24:47;17.52;;;8.50;;
71164;SDS011;58859;55.132;-1.586;2022-12-18T14:27:25;17.55;;;9.13;;
71164;SDS011;58859;55.132;-1.586;2022-12-18T14:29:50;22.05;;;9.85;;
71164;SDS011;58859;55.132;-1.586;2022-12-18T14:32:17;21.55;;;10.18;;
71164;SDS011;58859;55.132;-1.586;2022-12-18T14:34:48;18.35;;;9.55;;
71164;SDS011;58859;55.132;-1.586;2022-12-18T14:37:25;27.50;;;12.20;;
71164;SDS011;58859;55.132;-1.586;2022-12-18T14:42:21;10.88;;;6.43;;
71164;SDS011;58859;55.132;-1.586;2022-12-18T14:44:47;20.00;;;9.53;;
71164;SDS011;58859;55.132;-1.586;2022-12-18T14:47:15;18.05;;;8.52;;
71164;SDS011;58859;55.132;-1.586;2022-12-18T14:49:41;21.05;;;10.70;;
71164;SDS011;58859;55.132;-1.586;2022-12-18T14:52:23;18.92;;;8.27;;
71164;SDS011;58859;55.132;-1.586;2022-12-18T14:54:52;16.83;;;8.80;;
71164;SDS011;58859;55.132;-1.586;2022-12-18T14:57:25;16.87;;;7.70;;
71164;SDS011;58859;55.132;-1.586;2022-12-18T14:59:55;14.68;;;6.20;;
71164;SDS011;58859;55.132;-1.586;2022-12-18T15:02:29;20.02;;;9.40;;
71164;SDS011;58859;55.132;-1.586;2022-12-18T15:05:05;22.33;;;9.57;;
71164;SDS011;58859;55.132;-1.586;2022-12-18T15:10:15;16.08;;;8.20;;
71164;SDS011;58859;55.132;-1.586;2022-12-18T15:12:44;17.57;;;8.23;;
71164;SDS011;58859;55.132;-1.586;2022-12-18T15:18:04;22.77;;;10.23;;
71164;SDS011;58859;55.132;-1.586;2022-12-18T15:20:31;23.05;;;10.70;;
71164;SDS011;58859;55.132;-1.586;2022-12-18T15:22:58;14.00;;;7.88;;
71164;SDS011;58859;55.132;-1.586;2022-12-18T15:25:26;17.60;;;9.47;;
71164;SDS011;58859;55.132;-1.586;2022-12-18T15:27:53;24.58;;;10.20;;
71164;SDS011;58859;55.132;-1.586;2022-12-18T15:30:19;18.73;;;8.97;;
71164;SDS011;58859;55.132;-1.586;2022-12-18T15:32:49;10.93;;;6.18;;
71164;SDS011;58859;55.132;-1.586;2022-12-18T15:37:51;23.48;;;12.05;;
71164;SDS011;58859;55.132;-1.586;2022-12-18T15:40:18;23.30;;;11.60;;
71164;SDS011;58859;55.132;-1.586;2022-12-18T15:42:47;23.77;;;11.40;;
71164;SDS011;58859;55.132;-1.586;2022-12-18T15:45:32;11.18;;;5.82;;
71164;SDS011;58859;55.132;-1.586;2022-12-18T15:47:58;15.73;;;7.43;;
71164;SDS011;58859;55.132;-1.586;2022-12-18T15:50:24;20.58;;;9.32;;
71164;SDS011;58859;55.132;-1.586;2022-12-18T15:52:51;20.27;;;10.05;;
71164;SDS011;58859;55.132;-1.586;2022-12-18T15:55:19;15.70;;;7.57;;
71164;SDS011;58859;55.132;-1.586;2022-12-18T15:58:06;16.13;;;7.63;;
71164;SDS011;58859;55.132;-1.586;2022-12-18T16:00:32;22.98;;;10.30;;
71164;SDS011;58859;55.132;-1.586;2022-12-18T16:02:59;17.42;;;9.10;;
71164;SDS011;58859;55.132;-1.586;2022-12-18T16:05:24;15.63;;;8.30;;
71164;SDS011;58859;55.132;-1.586;2022-12-18T16:07:51;16.60;;;7.90;;
71164;SDS011;58859;55.132;-1.586;2022-12-18T16:10:16;18.90;;;9.10;;
71164;SDS011;58859;55.132;-1.586;2022-12-18T16:12:42;16.00;;;7.93;;
71164;SDS011;58859;55.132;-1.586;2022-12-18T16:15:07;15.00;;;8.00;;
71164;SDS011;58859;55.132;-1.586;2022-12-18T16:17:35;17.13;;;8.30;;
71164;SDS011;58859;55.132;-1.586;2022-12-18T16:20:00;19.33;;;9.45;;
71164;SDS011;58859;55.132;-1.586;2022-12-18T16:22:27;16.23;;;7.80;;
71164;SDS011;58859;55.132;-1.586;2022-12-18T16:24:54;21.23;;;9.67;;
71164;SDS011;58859;55.132;-1.586;2022-12-18T16:27:21;16.40;;;8.30;;
71164;SDS011;58859;55.132;-1.586;2022-12-18T16:29:47;13.95;;;7.47;;
71164;SDS011;58859;55.132;-1.586;2022-12-18T16:32:17;20.17;;;8.88;;